Time;durP1;ratioP1;P1;durP2;ratioP2;P2;SDS_P1;SDS_P2;PMS_P1;PMS_P2;Temp;Humidity;BMP_temperature;BMP_pressure;BME280_temperature;BME280_humidity;BME280_pressure;Samples;Min_cycle;Max_cycle;Signal;HPM_P1;HPM_P2
2021/05/15 00:00:12;;;;;;;12.10;3.15;;;;;;;10.47;88.91;98579.43;1770368;81;21125;-79
2021/05/15 00:02:40;;;;;;;7.97;3.20;;;;;;;10.47;87.79;98588.52;1752622;81;21077;-79
2021/05/15 00:05:09;;;;;;;5.35;2.75;;;;;;;10.42;88.46;98584.75;1750229;81;21869;-79
2021/05/15 00:07:36;;;;;;;11.28;2.98;;;;;;;10.43;87.12;98589.52;1763065;81;21089;-79
2021/05/15 00:10:06;;;;;;;5.28;3.25;;;;;;;10.39;88.77;98591.37;1756061;81;21038;-80
2021/05/15 00:12:33;;;;;;;4.67;3.02;;;;;;;10.39;88.31;98593.97;1759919;81;21065;-79
2021/05/15 00:15:02;;;;;;;6.70;3.10;;;;;;;10.40;88.26;98598.70;1748968;81;21080;-80
2021/05/15 00:17:29;;;;;;;4.75;3.08;;;;;;;10.38;88.45;98594.01;1762793;81;22156;-80
2021/05/15 00:19:55;;;;;;;9.93;3.60;;;;;;;10.38;88.25;98595.31;1754395;81;21877;-80
2021/05/15 00:22:22;;;;;;;5.78;3.12;;;;;;;10.30;89.05;98599.45;1769400;80;21037;-80
2021/05/15 00:24:48;;;;;;;5.45;3.50;;;;;;;10.31;88.21;98592.91;1757404;81;20975;-79
2021/05/15 00:27:14;;;;;;;5.72;3.27;;;;;;;10.28;89.26;98598.61;1752668;81;21013;-80
2021/05/15 00:29:41;;;;;;;9.18;3.33;;;;;;;10.23;89.01;98592.27;1758577;81;20993;-79
2021/05/15 00:32:07;;;;;;;5.20;3.10;;;;;;;10.30;88.26;98604.64;1765453;81;21014;-80
2021/05/15 00:34:34;;;;;;;6.53;2.83;;;;;;;10.31;88.40;98601.16;1756245;81;21088;-80
2021/05/15 00:37:00;;;;;;;4.70;2.52;;;;;;;10.30;89.21;98605.94;1764379;80;21810;-81
2021/05/15 00:39:26;;;;;;;4.17;2.65;;;;;;;10.28;90.01;98602.52;1756234;81;21053;-80
2021/05/15 00:41:53;;;;;;;4.72;2.70;;;;;;;10.30;88.93;98603.34;1745902;81;21085;-81
2021/05/15 00:46:52;;;;;;;4.15;2.67;;;;;;;10.33;87.38;98607.16;1764425;81;21034;-80
2021/05/15 00:49:18;;;;;;;5.60;2.80;;;;;;;10.32;87.21;98608.05;1757924;81;22429;-80
2021/05/15 00:51:45;;;;;;;8.00;2.77;;;;;;;10.29;87.53;98609.42;1740052;82;21013;-79
2021/05/15 00:54:12;;;;;;;4.05;2.70;;;;;;;10.24;87.86;98601.75;1753228;81;21054;-84
2021/05/15 00:56:40;;;;;;;7.12;2.85;;;;;;;10.22;87.37;98598.35;1766942;81;21109;-80
2021/05/15 00:59:07;;;;;;;4.87;3.00;;;;;;;10.19;87.39;98601.52;1763375;81;21026;-80
2021/05/15 01:01:33;;;;;;;5.42;2.72;;;;;;;10.14;88.50;98602.48;1765254;81;21137;-81
2021/05/15 01:04:00;;;;;;;4.53;2.90;;;;;;;10.13;87.33;98608.59;1753563;81;21084;-80
2021/05/15 01:06:26;;;;;;;5.33;2.90;;;;;;;10.10;89.26;98609.97;1763052;81;21090;-81
2021/05/15 01:08:53;;;;;;;10.75;2.80;;;;;;;10.12;89.37;98616.42;1762073;81;21026;-82
2021/05/15 01:11:20;;;;;;;7.75;3.00;;;;;;;10.10;88.89;98610.44;1768416;81;21053;-80
2021/05/15 01:13:58;;;;;;;4.62;3.15;;;;;;;10.05;89.53;98613.18;1758788;81;21029;-80
2021/05/15 01:16:26;;;;;;;5.83;3.35;;;;;;;10.02;89.47;98620.20;1767941;81;21344;-81
2021/05/15 01:18:53;;;;;;;4.70;2.90;;;;;;;9.96;88.48;98623.84;1759075;81;21061;-80
2021/05/15 01:21:20;;;;;;;7.30;3.12;;;;;;;9.92;89.76;98620.93;1765662;81;21055;-79
2021/05/15 01:23:47;;;;;;;5.80;3.40;;;;;;;9.88;88.43;98619.33;1759926;81;21027;-80
2021/05/15 01:26:28;;;;;;;5.80;3.42;;;;;;;9.86;87.99;98622.41;1767566;81;21034;-80
2021/05/15 01:28:58;;;;;;;6.15;3.40;;;;;;;9.84;88.27;98616.42;1756888;81;21005;-80
2021/05/15 01:31:25;;;;;;;7.78;3.40;;;;;;;9.83;89.96;98614.28;1768159;81;21035;-83
2021/05/15 01:33:52;;;;;;;10.55;4.12;;;;;;;9.83;90.63;98609.51;1764136;81;21049;-81
2021/05/15 01:36:20;;;;;;;7.10;3.17;;;;;;;9.85;88.27;98611.64;1768211;81;21137;-80
2021/05/15 01:38:48;;;;;;;5.67;3.50;;;;;;;9.84;89.13;98612.07;1768188;81;21070;-80
2021/05/15 01:41:17;;;;;;;7.92;3.30;;;;;;;9.83;89.97;98609.09;1768325;81;21025;-80
2021/05/15 01:43:45;;;;;;;5.00;3.27;;;;;;;9.84;88.27;98613.83;1755221;81;21076;-80
2021/05/15 01:46:13;;;;;;;5.87;3.30;;;;;;;9.82;90.66;98616.91;1768216;81;21022;-79
2021/05/15 01:48:40;;;;;;;5.17;3.10;;;;;;;9.81;89.58;98608.70;1751840;81;21025;-81
2021/05/15 01:51:13;;;;;;;4.65;3.20;;;;;;;9.82;90.68;98615.62;1764652;81;21045;-80
2021/05/15 01:53:44;;;;;;;5.57;3.33;;;;;;;9.83;89.35;98623.79;1762370;81;21109;-81
2021/05/15 01:56:14;;;;;;;5.60;3.00;;;;;;;9.84;88.59;98619.86;1753340;81;21156;-81
2021/05/15 01:58:41;;;;;;;4.55;3.00;;;;;;;9.85;88.84;98616.84;1756124;81;21645;-81
2021/05/15 02:01:08;;;;;;;4.95;2.77;;;;;;;9.87;88.66;98612.45;1747644;81;21161;-80
2021/05/15 02:03:38;;;;;;;4.37;2.77;;;;;;;9.84;88.57;98613.83;1757673;81;21046;-83
2021/05/15 02:06:05;;;;;;;4.75;2.90;;;;;;;9.81;88.18;98606.11;1759328;81;21069;-79
2021/05/15 02:08:32;;;;;;;4.72;3.08;;;;;;;9.82;88.69;98611.72;1764000;81;21164;-80
2021/05/15 02:11:00;;;;;;;4.78;3.20;;;;;;;9.80;88.17;98609.62;1765114;81;21014;-79
2021/05/15 02:13:28;;;;;;;5.15;3.05;;;;;;;9.73;88.12;98612.86;1762878;80;21088;-80
2021/05/15 02:15:59;;;;;;;4.97;3.10;;;;;;;9.68;88.69;98618.62;1758499;81;21085;-80
2021/05/15 02:18:28;;;;;;;7.17;3.15;;;;;;;9.65;89.10;98618.27;1753868;81;21026;-82
2021/05/15 02:20:56;;;;;;;7.75;2.75;;;;;;;9.63;88.52;98617.88;1757086;81;21089;-81
2021/05/15 02:23:24;;;;;;;6.72;2.58;;;;;;;9.58;87.86;98621.92;1756862;81;21905;-83
2021/05/15 02:25:53;;;;;;;4.30;2.33;;;;;;;9.54;88.04;98622.45;1734200;83;21049;-80
2021/05/15 02:28:20;;;;;;;3.67;2.22;;;;;;;9.50;87.44;98624.73;1743875;81;21051;-80
2021/05/15 02:30:49;;;;;;;5.65;2.20;;;;;;;9.45;88.02;98623.16;1764711;81;21570;-80
2021/05/15 02:33:16;;;;;;;5.10;2.30;;;;;;;9.40;89.25;98623.29;1761572;81;21026;-81
2021/05/15 02:35:42;;;;;;;3.52;2.37;;;;;;;9.35;88.12;98618.66;1751655;80;21121;-79
2021/05/15 02:38:12;;;;;;;8.98;3.00;;;;;;;9.31;89.05;98619.64;1754336;81;21712;-79
2021/05/15 02:40:41;;;;;;;9.48;3.10;;;;;;;9.28;90.40;98619.74;1759891;81;21032;-80
2021/05/15 02:43:08;;;;;;;4.50;3.27;;;;;;;9.27;90.21;98615.43;1750326;81;21467;-79
2021/05/15 02:45:37;;;;;;;6.00;3.37;;;;;;;9.25;92.08;98624.58;1757167;81;21062;-80
2021/05/15 02:48:04;;;;;;;4.85;3.47;;;;;;;9.26;92.14;98625.42;1756983;81;21032;-83
2021/05/15 02:50:31;;;;;;;5.60;3.00;;;;;;;9.28;93.03;98618.45;1768943;81;21128;-79
2021/05/15 02:52:58;;;;;;;6.95;3.12;;;;;;;9.30;93.54;98625.28;1760020;80;21078;-80
2021/05/15 02:55:26;;;;;;;11.53;3.50;;;;;;;9.31;93.35;98629.59;1770834;80;22331;-80
2021/05/15 02:57:54;;;;;;;5.83;2.85;;;;;;;9.33;92.62;98623.05;1753117;81;21068;-80
2021/05/15 03:00:25;;;;;;;9.05;3.52;;;;;;;9.34;91.65;98628.20;1752186;82;21229;-80
2021/05/15 03:02:52;;;;;;;11.63;4.95;;;;;;;9.40;91.66;98622.45;1753574;81;21029;-79
2021/05/15 03:05:22;;;;;;;6.58;4.17;;;;;;;9.42;92.12;98624.55;1751935;81;22225;-83
2021/05/15 03:07:50;;;;;;;7.12;3.15;;;;;;;9.41;91.04;98625.43;1753115;81;21034;-79
2021/05/15 03:10:19;;;;;;;7.03;3.20;;;;;;;9.42;90.74;98627.15;1711062;83;21045;-81
2021/05/15 03:12:46;;;;;;;12.47;3.70;;;;;;;9.39;91.51;98624.62;1681583;84;21055;-82
2021/05/15 03:15:13;;;;;;;11.75;3.98;;;;;;;9.42;91.21;98625.84;1704255;84;21083;-80
2021/05/15 03:17:43;;;;;;;10.23;2.83;;;;;;;9.45;91.37;98627.05;1696268;84;21720;-79
2021/05/15 03:20:16;;;;;;;6.78;3.40;;;;;;;9.50;91.00;98627.33;1711962;84;21322;-79
2021/05/15 03:22:44;;;;;;;12.98;3.80;;;;;;;9.54;90.75;98622.91;1710055;82;21139;-79
2021/05/15 03:25:12;;;;;;;8.48;3.10;;;;;;;9.58;90.31;98624.52;1711944;84;21557;-83
2021/05/15 03:27:39;;;;;;;7.25;3.27;;;;;;;9.63;90.43;98636.05;1712581;80;21015;-81
2021/05/15 03:30:09;;;;;;;9.83;3.52;;;;;;;9.64;90.87;98634.72;1682948;83;21107;-80
2021/05/15 03:32:37;;;;;;;6.20;4.00;;;;;;;9.68;89.78;98646.71;1710613;83;21432;-79
2021/05/15 03:35:05;;;;;;;16.87;3.83;;;;;;;9.73;90.82;98647.90;1671371;85;21122;-80
2021/05/15 03:37:31;;;;;;;7.03;3.15;;;;;;;9.79;91.01;98646.84;1720794;81;21153;-81
2021/05/15 03:39:57;;;;;;;9.63;3.95;;;;;;;9.80;91.13;98648.10;1698895;83;21127;-80
2021/05/15 03:42:25;;;;;;;8.20;3.67;;;;;;;9.79;91.93;98637.76;1704930;83;22344;-79
2021/05/15 03:44:52;;;;;;;10.65;4.10;;;;;;;9.86;90.41;98639.29;1678286;84;21670;-79
2021/05/15 03:47:19;;;;;;;12.70;3.58;;;;;;;9.87;90.68;98644.45;1705339;83;21173;-80
2021/05/15 03:49:46;;;;;;;10.03;3.42;;;;;;;9.87;91.11;98650.94;1687386;83;21046;-79
2021/05/15 03:52:12;;;;;;;8.68;3.65;;;;;;;9.91;89.45;98650.41;1711705;84;21013;-80
2021/05/15 03:54:39;;;;;;;5.65;3.25;;;;;;;9.84;89.68;98632.00;1698614;83;21098;-80
2021/05/15 03:57:06;;;;;;;12.05;3.12;;;;;;;9.88;90.36;98643.53;1702686;84;21072;-80
2021/05/15 03:59:33;;;;;;;8.48;3.33;;;;;;;9.84;90.48;98642.38;1693077;82;21085;-81
2021/05/15 04:01:59;;;;;;;6.90;3.47;;;;;;;9.81;91.51;98642.45;1706885;83;21106;-82
2021/05/15 04:04:25;;;;;;;6.62;3.37;;;;;;;9.84;90.14;98644.98;1701227;83;21125;-81
2021/05/15 04:06:52;;;;;;;6.05;3.02;;;;;;;9.86;90.67;98647.08;1708009;83;21069;-81
2021/05/15 04:09:18;;;;;;;10.03;3.22;;;;;;;9.92;89.68;98648.20;1702407;83;21066;-83
2021/05/15 04:11:45;;;;;;;7.10;3.40;;;;;;;9.92;91.06;98649.50;1707726;83;21319;-81
2021/05/15 04:14:32;;;;;;;5.42;2.70;;;;;;;9.99;89.98;98650.16;1701480;83;21077;-80
2021/05/15 04:19:35;;;;;;;;;;;;;;;9.99;90.46;98653.63;1713159;82;20201;-82
2021/05/15 04:22:03;;;;;;;;;;;;;;;9.98;90.51;98651.06;1712227;83;20246;-79
2021/05/15 04:24:29;;;;;;;;;;;;;;;10.00;90.27;98657.91;1707459;83;20193;-80
2021/05/15 04:26:58;;;;;;;;;;;;;;;10.00;90.16;98654.47;1703531;83;20202;-79
2021/05/15 04:29:25;;;;;;;;;;;;;;;10.04;89.87;98654.77;1689494;84;20204;-80
2021/05/15 04:31:58;;;;;;;;;;;;;;;10.08;89.58;98650.73;1704526;84;20208;-81
2021/05/15 04:34:28;;;;;;;;;;;;;;;10.09;89.69;98643.81;1679475;84;20206;-80
2021/05/15 04:36:54;;;;;;;;;;;;;;;10.13;89.53;98655.35;1705395;84;20662;-80
2021/05/15 04:39:21;;;;;;;;;;;;;;;10.16;89.78;98653.94;1693678;84;20215;-80
2021/05/15 04:41:47;;;;;;;;;;;;;;;10.12;89.87;98656.23;1706143;84;20155;-81
2021/05/15 04:44:13;;;;;;;;;;;;;;;10.22;89.28;98647.71;1703720;83;20224;-81
2021/05/15 04:46:39;;;;;;;;;;;;;;;10.21;89.51;98656.88;1706138;84;20167;-81
2021/05/15 04:49:06;;;;;;;;;;;;;;;10.23;89.62;98655.92;1688610;83;20184;-80
2021/05/15 04:51:32;;;;;;;;;;;;;;;10.27;89.46;98661.88;1710546;84;20166;-80
2021/05/15 04:54:01;;;;;;;;;;;;;;;10.29;89.59;98653.13;1697302;84;20227;-81
2021/05/15 04:56:26;;;;;;;;;;;;;;;10.33;89.80;98658.67;1701865;83;20208;-80
2021/05/15 04:58:52;;;;;;;;;;;;;;;10.44;89.22;98655.72;1718736;83;20584;-80
2021/05/15 05:01:18;;;;;;;;;;;;;;;10.53;89.77;98658.04;1728595;83;20171;-81
2021/05/15 05:03:45;;;;;;;;;;;;;;;10.68;89.19;98651.94;1718130;82;20193;-82
2021/05/15 05:06:11;;;;;;;;;;;;;;;10.80;89.04;98659.79;1722984;83;20215;-80
2021/05/15 05:08:37;;;;;;;;;;;;;;;10.96;88.42;98660.97;1713882;83;20513;-80
2021/05/15 05:11:03;;;;;;;;;;;;;;;11.12;88.27;98663.48;1721775;83;20203;-82
2021/05/15 05:13:29;;;;;;;;;;;;;;;11.29;87.34;98660.73;1719819;83;20178;-81
2021/05/15 05:15:56;;;;;;;;;;;;;;;11.39;87.43;98662.56;1702879;84;20180;-80
2021/05/15 05:18:23;;;;;;;;;;;;;;;11.50;86.90;98657.84;1716077;83;20158;-81
2021/05/15 05:20:51;;;;;;;;;;;;;;;11.63;86.86;98656.47;1731710;83;20220;-81
2021/05/15 05:23:17;;;;;;;;;;;;;;;11.73;86.46;98659.13;1722676;83;20209;-80
2021/05/15 05:25:43;;;;;;;;;;;;;;;11.84;85.84;98657.91;1728682;83;20191;-80
2021/05/15 05:28:13;;;;;;;;;;;;;;;11.97;85.49;98660.46;1719702;83;20197;-81
2021/05/15 05:30:38;;;;;;;;;;;;;;;12.05;85.33;98658.41;1724306;83;20171;-80
2021/05/15 05:33:05;;;;;;;;;;;;;;;12.11;84.21;98659.48;1721225;83;20193;-80
2021/05/15 05:35:34;;;;;;;;;;;;;;;12.08;83.62;98662.22;1701293;83;20165;-80
2021/05/15 05:37:59;;;;;;;;;;;;;;;12.18;83.87;98660.58;1724962;82;20191;-80
2021/05/15 05:40:25;;;;;;;;;;;;;;;12.19;83.67;98660.95;1701755;83;20238;-80
2021/05/15 05:42:51;;;;;;;;;;;;;;;12.24;83.43;98658.57;1725210;83;20227;-80
2021/05/15 05:45:18;;;;;;;;;;;;;;;12.23;82.94;98651.64;1716729;83;20534;-80
2021/05/15 05:47:44;;;;;;;;;;;;;;;12.28;83.47;98655.39;1725322;83;20191;-80
2021/05/15 05:50:11;;;;;;;;;;;;;;;12.37;83.31;98657.63;1713915;83;20199;-81
2021/05/15 05:52:38;;;;;;;;;;;;;;;12.46;83.02;98658.58;1726559;83;20199;-80
2021/05/15 05:55:06;;;;;;;;;;;;;;;12.55;84.08;98653.44;1719128;82;20172;-78
2021/05/15 05:57:32;;;;;;;;;;;;;;;12.66;83.65;98651.72;1726857;82;20198;-80
2021/05/15 05:59:58;;;;;;;;;;;;;;;12.74;81.85;98650.94;1707286;83;20170;-81
2021/05/15 06:02:25;;;;;;;;;;;;;;;12.80;81.35;98652.45;1702561;83;20235;-80
2021/05/15 06:04:51;;;;;;;;;;;;;;;12.91;80.76;98647.19;1719598;83;20239;-81
2021/05/15 06:07:17;;;;;;;;;;;;;;;12.99;80.91;98640.78;1704330;82;20553;-80
2021/05/15 06:09:43;;;;;;;;;;;;;;;13.08;80.92;98645.63;1695114;83;20242;-81
2021/05/15 06:12:10;;;;;;;;;;;;;;;13.18;79.89;98648.23;1706300;83;20314;-80
2021/05/15 06:14:38;;;;;;;;;;;;;;;13.32;81.30;98645.89;1722916;83;20601;-79
2021/05/15 06:17:05;;;;;;;;;;;;;;;13.47;81.09;98648.78;1727247;83;20531;-80
2021/05/15 06:19:31;;;;;;;;;;;;;;;13.56;78.56;98648.34;1726650;83;20191;-79
2021/05/15 06:21:58;;;;;;;;;;;;;;;13.66;78.90;98651.41;1708066;83;20207;-80
2021/05/15 06:24:25;;;;;;;;;;;;;;;13.70;78.36;98652.49;1726215;83;20175;-80
2021/05/15 06:26:51;;;;;;;;;;;;;;;13.85;79.33;98654.89;1722285;82;20159;-81
2021/05/15 06:29:18;;;;;;;;;;;;;;;13.98;78.61;98651.23;1717296;83;20198;-80
2021/05/15 06:31:44;;;;;;;;;;;;;;;14.09;77.63;98652.07;1721169;83;20179;-81
2021/05/15 06:34:10;;;;;;;;;;;;;;;14.15;75.87;98647.86;1722185;82;20557;-81
2021/05/15 06:36:36;;;;;;;;;;;;;;;14.27;76.96;98635.98;1727151;82;20193;-80
2021/05/15 06:39:03;;;;;;;;;;;;;;;14.32;76.71;98640.52;1723651;83;20309;-80
2021/05/15 06:41:29;;;;;;;;;;;;;;;14.43;75.72;98642.63;1718733;83;20184;-80
2021/05/15 06:43:56;;;;;;;;;;;;;;;14.55;76.10;98644.66;1717824;83;20230;-81
2021/05/15 06:46:22;;;;;;;;;;;;;;;14.64;74.45;98642.94;1728561;83;20213;-80
2021/05/15 06:48:48;;;;;;;;;;;;;;;14.62;72.65;98642.61;1717377;83;20591;-80
2021/05/15 06:51:16;;;;;;;;;;;;;;;14.72;73.19;98639.92;1726730;83;20199;-80
2021/05/15 06:53:43;;;;;;;;;;;;;;;14.83;73.57;98635.48;1716545;83;20182;-81
2021/05/15 06:56:09;;;;;;;;;;;;;;;14.94;74.29;98638.86;1719215;83;20180;-80
2021/05/15 06:58:35;;;;;;;;;;;;;;;14.97;72.27;98637.41;1697047;84;20215;-80
2021/05/15 07:01:01;;;;;;;;;;;;;;;15.04;73.13;98638.77;1702883;84;20177;-80
2021/05/15 07:03:29;;;;;;;;;;;;;;;15.04;71.35;98645.31;1699667;84;20187;-80
2021/05/15 07:05:55;;;;;;;;;;;;;;;15.11;71.99;98640.17;1697428;84;20212;-81
2021/05/15 07:08:21;;;;;;;;;;;;;;;15.24;73.70;98641.25;1700377;84;20184;-80
2021/05/15 07:10:48;;;;;;;;;;;;;;;15.32;70.15;98648.71;1700278;84;20191;-81
2021/05/15 07:13:14;;;;;;;;;;;;;;;15.40;72.04;98645.23;1691544;84;20219;-79
2021/05/15 07:15:40;;;;;;;;;;;;;;;15.44;71.55;98641.52;1702198;84;20600;-80
2021/05/15 07:18:07;;;;;;;;;;;;;;;15.48;69.27;98640.43;1701066;84;20196;-80
2021/05/15 07:20:33;;;;;;;;;;;;;;;15.58;70.82;98629.00;1703739;84;20200;-81
2021/05/15 07:23:00;;;;;;;;;;;;;;;15.69;70.67;98634.50;1701234;84;20205;-78
2021/05/15 07:25:26;;;;;;;;;;;;;;;15.74;68.76;98634.75;1700477;83;20264;-80
2021/05/15 07:27:52;;;;;;;;;;;;;;;15.79;68.71;98634.05;1703820;84;20594;-80
2021/05/15 07:30:19;;;;;;;;;;;;;;;15.88;69.05;98629.64;1704623;83;20211;-79
2021/05/15 07:32:47;;;;;;;;;;;;;;;15.91;65.70;98626.83;1703054;84;20314;-78
2021/05/15 07:35:13;;;;;;;;;;;;;;;15.99;66.15;98620.70;1704953;84;20185;-81
2021/05/15 07:37:40;;;;;;;;;;;;;;;16.06;66.68;98614.67;1707986;82;20141;-81
2021/05/15 07:40:06;;;;;;;;;;;;;;;16.12;66.01;98609.56;1693949;84;20250;-81
2021/05/15 07:42:33;;;;;;;;;;;;;;;16.23;68.53;98608.00;1700235;84;20619;-79
2021/05/15 07:45:00;;;;;;;;;;;;;;;16.30;65.46;98603.28;1691928;84;20570;-80
2021/05/15 07:47:29;;;;;;;;;;;;;;;16.34;65.87;98610.05;1703861;84;20204;-80
2021/05/15 07:49:56;;;;;;;;;;;;;;;16.46;68.06;98609.81;1694949;83;20205;-80
2021/05/15 07:52:22;;;;;;;;;;;;;;;16.58;65.93;98600.41;1696017;84;20248;-80
2021/05/15 07:54:51;;;;;;;;;;;;;;;16.68;67.68;98601.55;1694294;84;20224;-80
2021/05/15 07:57:17;;;;;;;;;;;;;;;16.81;67.93;98596.02;1702529;84;20244;-80
2021/05/15 07:59:43;;;;;;;;;;;;;;;16.96;67.39;98602.59;1686972;84;20276;-79
2021/05/15 08:02:09;;;;;;;;;;;;;;;17.07;62.82;98595.78;1703527;84;20173;-80
2021/05/15 08:04:36;;;;;;;;;;;;;;;17.24;66.28;98596.06;1692214;84;20195;-79
2021/05/15 08:07:03;;;;;;;;;;;;;;;17.38;64.64;98595.23;1703738;84;20204;-79
2021/05/15 08:09:29;;;;;;;;;;;;;;;17.45;65.41;98598.34;1686315;83;20338;-79
2021/05/15 08:11:55;;;;;;;;;;;;;;;17.58;65.83;98595.31;1703756;84;20192;-80
2021/05/15 08:14:22;;;;;;;;;;;;;;;17.73;66.13;98590.08;1693533;84;20549;-80
2021/05/15 08:16:48;;;;;;;;;;;;;;;17.83;65.40;98588.11;1698100;84;20196;-80
2021/05/15 08:19:14;;;;;;;;;;;;;;;17.86;65.87;98591.00;1698098;84;20207;-80
2021/05/15 08:21:41;;;;;;;;;;;;;;;17.91;65.94;98583.68;1684357;83;20590;-80
2021/05/15 08:24:08;;;;;;;;;;;;;;;17.96;65.70;98589.95;1696400;84;20216;-80
2021/05/15 08:26:36;;;;;;;;;;;;;;;18.06;65.17;98584.03;1704113;83;20177;-80
2021/05/15 08:29:07;;;;;;;;;;;;;;;18.22;65.29;98583.02;1702672;84;20168;-80
2021/05/15 08:31:33;;;;;;;;;;;;;;;18.38;66.36;98578.92;1704350;83;20185;-80
2021/05/15 08:33:59;;;;;;;;;;;;;;;18.52;64.49;98573.59;1700215;84;20208;-79
2021/05/15 08:36:25;;;;;;;;;;;;;;;18.68;63.68;98572.09;1703427;84;20189;-80
2021/05/15 08:38:54;;;;;;;;;;;;;;;18.81;62.85;98575.64;1701580;84;20228;-79
2021/05/15 08:41:20;;;;;;;;;;;;;;;18.91;62.30;98579.81;1703151;84;20192;-79
2021/05/15 08:43:48;;;;;;;;;;;;;;;19.03;62.55;98571.55;1695252;84;20199;-80
2021/05/15 08:46:15;;;;;;;;;;;;;;;19.11;61.63;98573.19;1683681;84;20244;-80
2021/05/15 08:48:43;;;;;;;;;;;;;;;19.24;60.26;98578.00;1697571;84;20191;-79
2021/05/15 08:51:12;;;;;;;;;;;;;;;19.37;58.37;98572.70;1702343;84;21045;-79
2021/05/15 08:53:39;;;;;;;;;;;;;;;19.50;58.13;98577.11;1681412;84;20607;-79
2021/05/15 08:56:08;;;;;;;;;;;;;;;19.61;60.26;98574.58;1693077;84;20259;-79
2021/05/15 08:58:37;;;;;;;;;;;;;;;19.77;57.40;98567.29;1675877;85;20218;-80
2021/05/15 09:01:06;;;;;;;;;;;;;;;19.94;55.33;98567.41;1660536;85;20938;-79
2021/05/15 09:03:33;;;;;;;;;;;;;;;20.06;58.78;98567.84;1671553;84;20351;-80
2021/05/15 09:05:59;;;;;;;;;;;;;;;20.22;59.50;98574.66;1664793;85;20234;-79
2021/05/15 09:08:25;;;;;;;;;;;;;;;20.35;58.00;98575.90;1676772;85;20187;-80
2021/05/15 09:10:52;;;;;;;;;;;;;;;20.35;56.31;98571.94;1663352;85;20222;-79
2021/05/15 09:13:23;;;;;;;;;;;;;;;20.33;52.43;98572.53;1671462;85;20202;-79
2021/05/15 09:15:52;;;;;;;;;;;;;;;20.31;53.56;98573.95;1634964;88;20200;-79
2021/05/15 09:18:25;;;;;;;;;;;;;;;20.44;59.37;98575.23;1650165;85;20217;-80
2021/05/15 09:20:54;;;;;;;;;;;;;;;20.56;54.53;98573.00;1676102;85;20196;-80
2021/05/15 09:23:29;;;;;;;;;;;;;;;20.70;56.95;98573.31;1665722;85;20226;-80
2021/05/15 09:26:03;;;;;;;;;;;;;;;20.84;56.96;98570.95;1646199;86;20167;-81
2021/05/15 09:28:30;;;;;;;;;;;;;;;20.80;49.55;98570.34;1667087;85;20164;-80
2021/05/15 09:30:57;;;;;;;;;;;;;;;20.95;51.73;98566.16;1655149;85;20188;-81
2021/05/15 09:33:26;;;;;;;;;;;;;;;20.91;46.85;98558.98;1678406;85;20198;-79
2021/05/15 09:35:53;;;;;;;;;;;;;;;20.96;48.42;98558.61;1664929;85;20176;-80
2021/05/15 09:38:19;;;;;;;;;;;;;;;20.98;49.27;98554.89;1669472;85;20196;-81
2021/05/15 09:40:45;;;;;;;;;;;;;;;21.12;50.82;98548.55;1663167;85;20198;-80
2021/05/15 09:43:11;;;;;;;;;;;;;;;21.21;48.78;98547.84;1658789;86;20197;-80
2021/05/15 09:45:38;;;;;;;;;;;;;;;21.41;50.53;98544.96;1656141;85;20196;-81
2021/05/15 09:48:09;;;;;;;;;;;;;;;21.57;49.43;98542.47;1684147;85;20310;-81
2021/05/15 09:50:39;;;;;;;;;;;;;;;21.67;48.81;98535.48;1678231;85;20196;-81
2021/05/15 09:53:14;;;;;;;;;;;;;;;21.81;52.46;98540.50;1676862;85;20174;-80
2021/05/15 09:55:46;;;;;;;;;;;;;;;21.98;46.42;98535.64;1674628;85;20566;-81
2021/05/15 09:58:12;;;;;;;;;;;;;;;22.04;42.39;98536.01;1681781;83;20204;-79
2021/05/15 10:00:41;;;;;;;;;;;;;;;22.07;41.03;98533.59;1679278;85;20216;-81
2021/05/15 10:03:19;;;;;;;;;;;;;;;22.20;42.83;98525.47;1680414;85;20201;-80
2021/05/15 10:05:57;;;;;;;;;;;;;;;22.18;41.06;98520.78;1673772;85;20186;-80
2021/05/15 10:08:23;;;;;;;;;;;;;;;22.13;42.23;98515.88;1671704;85;20200;-80
2021/05/15 10:10:51;;;;;;;;;;;;;;;22.32;45.92;98517.89;1674556;85;20179;-81
2021/05/15 10:13:18;;;;;;;;;;;;;;;22.51;46.57;98519.84;1678132;85;20210;-81
2021/05/15 10:15:45;;;;;;;;;;;;;;;22.77;44.84;98524.76;1666367;85;20604;-81
2021/05/15 10:18:15;;;;;;;;;;;;;;;22.94;44.54;98514.89;1672887;85;20209;-81
2021/05/15 10:20:43;;;;;;;;;;;;;;;23.15;44.67;98512.23;1686541;85;20901;-80
2021/05/15 10:23:22;;;;;;;;;;;;;;;23.39;45.58;98507.09;1682043;85;20642;-81
2021/05/15 10:25:49;;;;;;;;;;;;;;;23.45;44.02;98495.94;1659538;85;20626;-81
2021/05/15 10:28:29;;;;;;;;;;;;;;;23.56;42.51;98493.19;1682994;85;20171;-80
2021/05/15 10:31:08;;;;;;;;;;;;;;;23.51;41.04;98490.59;1661066;85;20219;-81
2021/05/15 10:33:35;;;;;;;;;;;;;;;23.61;39.27;98490.95;1680851;85;20221;-80
2021/05/15 10:36:06;;;;;;;;;;;;;;;23.75;42.11;98495.03;1672817;85;20236;-80
2021/05/15 10:38:32;;;;;;;;;;;;;;;23.83;37.69;98494.39;1678770;85;20216;-80
2021/05/15 10:41:08;;;;;;;;;;;;;;;23.90;41.17;98489.39;1675197;85;20912;-80
2021/05/15 10:43:36;;;;;;;;;;;;;;;23.95;38.71;98477.84;1658538;85;20199;-80
2021/05/15 10:46:18;;;;;;;;;;;;;;;23.91;36.12;98489.72;1668788;85;20198;-81
2021/05/15 10:49:02;;;;;;;;;;;;;;;23.88;41.66;98479.40;1668161;85;20190;-80
2021/05/15 10:51:40;;;;;;;;;;;;;;;24.03;37.65;98481.97;1653440;85;20168;-81
2021/05/15 10:54:08;;;;;;;;;;;;;;;24.14;34.74;98483.17;1672999;84;20186;-81
2021/05/15 10:56:34;;;;;;;;;;;;;;;24.31;35.87;98479.46;1686300;84;20185;-80
2021/05/15 10:59:11;;;;;;;;;;;;;;;24.41;37.72;98474.51;1643769;84;20980;-81
2021/05/15 11:01:52;;;;;;;;;;;;;;;24.33;36.53;98468.20;1653949;85;20204;-80
2021/05/15 11:04:30;;;;;;;;;;;;;;;24.48;39.77;98461.98;1664519;84;20202;-80
2021/05/15 11:07:03;;;;;;;;;;;;;;;24.55;37.08;98457.32;1677901;85;20206;-81
2021/05/15 11:09:31;;;;;;;;;;;;;;;24.69;38.61;98450.72;1651887;85;20559;-80
2021/05/15 11:12:13;;;;;;;;;;;;;;;24.93;36.80;98449.36;1691285;84;20559;-80
2021/05/15 11:14:42;;;;;;;;;;;;;;;25.12;37.12;98447.13;1666333;85;20242;-81
2021/05/15 11:17:12;;;;;;;;;;;;;;;25.34;35.23;98452.08;1660391;86;20281;-80
2021/05/15 11:19:40;;;;;;;;;;;;;;;25.45;34.20;98454.22;1650776;86;20193;-80
2021/05/15 11:22:06;;;;;;;;;;;;;;;25.55;35.01;98437.20;1657782;85;20174;-80
2021/05/15 11:24:36;;;;;;;;;;;;;;;25.66;36.41;98448.61;1672602;85;20211;-81
2021/05/15 11:27:15;;;;;;;;;;;;;;;25.59;32.66;98445.73;1668896;84;20187;-80
2021/05/15 11:29:42;;;;;;;;;;;;;;;25.47;34.01;98450.92;1691386;85;20541;-80
2021/05/15 11:32:11;;;;;;;;;;;;;;;25.40;33.21;98444.00;1666612;85;20195;-81
2021/05/15 11:34:38;;;;;;;;;;;;;;;25.25;31.70;98431.70;1673751;85;20216;-80
2021/05/15 11:37:04;;;;;;;;;;;;;;;25.13;33.14;98436.85;1691055;85;20208;-81
2021/05/15 11:39:31;;;;;;;;;;;;;;;25.28;34.14;98435.88;1691253;85;20379;-81
2021/05/15 11:42:10;;;;;;;;;;;;;;;25.40;32.56;98427.54;1671673;84;20183;-81
2021/05/15 11:44:40;;;;;;;;;;;;;;;25.52;34.49;98422.02;1653614;85;20339;-80
2021/05/15 11:47:09;;;;;;;;;;;;;;;25.93;35.61;98415.30;1691748;85;20542;-80
2021/05/15 11:49:37;;;;;;;;;;;;;;;26.07;36.23;98409.10;1696287;85;20323;-80
2021/05/15 11:52:06;;;;;;;;;;;;;;;26.25;35.31;98413.08;1694964;85;20180;-79
2021/05/15 11:54:34;;;;;;;;;;;;;;;26.69;34.21;98412.55;1670241;84;20173;-80
2021/05/15 11:57:01;;;;;;;;;;;;;;;27.13;33.68;98415.61;1691378;85;20204;-81
2021/05/15 11:59:29;;;;;;;;;;;;;;;27.52;32.52;98410.59;1672335;83;20187;-80
2021/05/15 12:01:55;;;;;;;;;;;;;;;27.84;31.54;98416.99;1666376;85;20203;-81
2021/05/15 12:04:30;;;;;;;;;;;;;;;28.21;28.74;98410.84;1674969;85;20569;-81
2021/05/15 12:07:05;;;;;;;;;;;;;;;28.63;29.56;98406.66;1683218;85;20188;-82
2021/05/15 12:09:32;;;;;;;;;;;;;;;29.11;28.49;98408.87;1671822;85;20196;-82
2021/05/15 12:12:01;;;;;;;;;;;;;;;29.36;28.25;98406.06;1675079;85;20220;-80
2021/05/15 12:14:28;;;;;;;;;;;;;;;29.47;26.59;98409.70;1673695;84;20213;-82
2021/05/15 12:16:56;;;;;;;;;;;;;;;29.60;27.40;98406.42;1679386;85;20231;-82
2021/05/15 12:19:29;;;;;;;;;;;;;;;29.60;27.04;98406.94;1682260;85;20195;-81
2021/05/15 12:22:04;;;;;;;;;;;;;;;29.51;26.11;98411.01;1658769;85;20221;-81
2021/05/15 12:24:39;;;;;;;;;;;;;;;29.44;25.91;98408.70;1681093;85;20208;-81
2021/05/15 12:27:08;;;;;;;;;;;;;;;29.45;29.27;98409.55;1677055;85;21054;-81
2021/05/15 12:29:34;;;;;;;;;;;;;;;30.11;26.04;98404.59;1675764;85;20222;-81